Time;durP1;ratioP1;P1;durP2;ratioP2;P2;SDS_P1;SDS_P2;PMS_P1;PMS_P2;Temp;Humidity;BMP_temperature;BMP_pressure;BME280_temperature;BME280_humidity;BME280_pressure;Samples;Min_cycle;Max_cycle;Signal;HPM_P1;HPM_P2
2021/03/06 00:00:33;;;;;;;4.45;1.95;;;;;;;-0.65;57.91;100911.01;1712787;82;21207;-72
2021/03/06 00:03:02;;;;;;;4.00;1.98;;;;;;;-0.69;58.06;100909.70;1728625;82;21549;-75
2021/03/06 00:05:30;;;;;;;6.42;2.30;;;;;;;-0.76;58.33;100909.58;1730740;82;21224;-75
2021/03/06 00:07:58;;;;;;;5.22;2.35;;;;;;;-0.82;58.44;100911.11;1723213;82;22541;-74
2021/03/06 00:10:26;;;;;;;7.37;2.80;;;;;;;-0.87;58.42;100908.18;1716235;81;21415;-75
2021/03/06 00:12:54;;;;;;;6.05;2.70;;;;;;;-0.90;58.54;100915.58;1714887;82;21200;-74
2021/03/06 00:15:28;;;;;;;6.33;2.45;;;;;;;-0.94;58.60;100916.42;1724111;82;21192;-76
2021/03/06 00:17:55;;;;;;;7.03;2.70;;;;;;;-0.97;58.68;100923.31;1711827;82;22190;-77
2021/03/06 00:20:23;;;;;;;6.22;2.00;;;;;;;-0.98;58.49;100930.88;1722625;82;21200;-73
2021/03/06 00:22:52;;;;;;;5.37;2.47;;;;;;;-1.02;58.48;100934.33;1723159;82;21279;-73
2021/03/06 00:25:21;;;;;;;6.12;2.80;;;;;;;-1.05;58.22;100935.98;1720954;83;21550;-74
2021/03/06 00:27:49;;;;;;;6.80;2.65;;;;;;;-1.07;58.17;100927.96;1709070;83;21192;-74
2021/03/06 00:30:18;;;;;;;6.65;2.60;;;;;;;-1.09;58.30;100933.86;1721837;82;21207;-73
2021/03/06 00:32:45;;;;;;;6.80;2.83;;;;;;;-1.13;58.41;100936.00;1732196;82;21224;-74
2021/03/06 00:35:15;;;;;;;7.67;2.40;;;;;;;-1.17;58.45;100937.84;1730111;82;21393;-76
2021/03/06 00:37:42;;;;;;;5.75;2.58;;;;;;;-1.23;58.70;100930.97;1730842;82;21240;-74
2021/03/06 00:40:12;;;;;;;5.45;2.37;;;;;;;-1.29;58.85;100934.27;1713512;81;21220;-76
2021/03/06 00:42:40;;;;;;;4.67;1.80;;;;;;;-1.35;58.82;100932.34;1727330;82;21247;-74
2021/03/06 00:45:10;;;;;;;4.92;2.30;;;;;;;-1.40;58.67;100932.53;1720848;82;21414;-75
2021/03/06 00:47:38;;;;;;;4.10;2.10;;;;;;;-1.45;58.59;100932.55;1718710;82;21370;-76
2021/03/06 00:50:13;;;;;;;5.87;2.27;;;;;;;-1.48;58.71;100937.28;1688314;83;21226;-73
2021/03/06 00:53:01;;;;;;;6.62;2.33;;;;;;;-1.53;58.48;100938.30;1714691;81;21191;-73
2021/03/06 00:55:32;;;;;;;5.33;2.65;;;;;;;-1.57;58.15;100938.31;1617391;88;21282;-74
2021/03/06 00:58:00;;;;;;;5.55;2.47;;;;;;;-1.63;57.91;100934.55;1618138;86;21630;-75
2021/03/06 01:00:30;;;;;;;7.53;2.20;;;;;;;-1.67;57.92;100931.95;1617416;87;21415;-74
2021/03/06 01:03:01;;;;;;;4.80;2.37;;;;;;;-1.71;57.91;100939.80;1624016;86;21239;-74
2021/03/06 01:05:29;;;;;;;6.10;2.08;;;;;;;-1.75;57.86;100932.77;1618490;88;21487;-73
2021/03/06 01:07:57;;;;;;;4.22;2.10;;;;;;;-1.77;57.76;100937.38;1618595;87;21406;-74
2021/03/06 01:10:29;;;;;;;4.20;2.25;;;;;;;-1.83;57.96;100940.65;1614468;87;21655;-75
2021/03/06 01:12:57;;;;;;;;;;;;;;;-1.86;57.98;100944.91;1621750;87;22082;-75
2021/03/06 01:15:24;;;;;;;6.20;2.47;;;;;;;-1.87;58.05;100946.40;1617887;86;20286;-75
2021/03/06 01:17:53;;;;;;;5.30;2.22;;;;;;;-1.94;57.95;100952.76;1620717;86;21659;-76
2021/03/06 01:20:21;;;;;;;5.45;2.52;;;;;;;-1.97;57.90;100945.27;1620799;86;21322;-77
2021/03/06 01:22:48;;;;;;;5.15;2.10;;;;;;;-1.99;57.75;100945.91;1618360;88;21777;-76
2021/03/06 01:25:16;;;;;;;4.20;2.00;;;;;;;-2.03;57.70;100947.23;1618250;87;21235;-78
2021/03/06 01:27:44;;;;;;;5.30;2.05;;;;;;;-2.08;57.80;100952.13;1618050;88;21365;-78
2021/03/06 01:30:14;;;;;;;4.47;1.80;;;;;;;-2.11;57.53;100953.27;1618346;87;21215;-78
2021/03/06 01:32:41;;;;;;;4.47;1.92;;;;;;;-2.14;57.54;100958.82;1618563;87;22186;-75
2021/03/06 01:35:11;;;;;;;5.17;2.35;;;;;;;-2.17;57.64;100957.38;1619132;88;21514;-76
2021/03/06 01:37:40;;;;;;;4.53;2.40;;;;;;;-2.19;57.23;100963.75;1619485;86;21259;-78
2021/03/06 01:40:19;;;;;;;6.87;2.33;;;;;;;-2.22;57.01;100964.88;1622287;86;21248;-76
2021/03/06 01:42:47;;;;;;;5.00;2.22;;;;;;;-2.23;56.83;100961.13;1619239;87;21664;-79
2021/03/06 01:45:16;;;;;;;4.50;2.10;;;;;;;-2.25;56.79;100962.59;1619823;88;21232;-75
2021/03/06 01:47:43;;;;;;;5.30;2.20;;;;;;;-2.26;56.78;100963.58;1618491;87;21574;-76
2021/03/06 01:50:19;;;;;;;5.15;1.70;;;;;;;-2.28;56.83;100969.45;1618686;87;21391;-73
2021/03/06 01:52:47;;;;;;;5.05;2.17;;;;;;;-2.29;56.76;100968.32;1620280;87;21159;-75
2021/03/06 01:55:16;;;;;;;5.53;2.30;;;;;;;-2.30;56.89;100974.52;1628453;86;21124;-78
2021/03/06 01:57:44;;;;;;;5.53;2.27;;;;;;;-2.35;57.06;100967.16;1628351;82;21239;-77
2021/03/06 02:00:16;;;;;;;5.45;2.22;;;;;;;-2.36;56.94;100979.92;1622164;85;21214;-75
2021/03/06 02:02:46;;;;;;;4.37;1.80;;;;;;;-2.40;56.66;100979.44;1615044;86;21782;-75
2021/03/06 02:05:15;;;;;;;4.08;1.87;;;;;;;-2.44;56.65;100989.87;1591194;88;21303;-75
2021/03/06 02:07:44;;;;;;;5.45;1.87;;;;;;;-2.45;56.75;100993.97;1615106;86;21701;-76
2021/03/06 02:10:13;;;;;;;3.55;1.65;;;;;;;-2.54;56.76;100996.23;1619725;86;21687;-75
2021/03/06 02:13:07;;;;;;;5.70;1.98;;;;;;;-2.54;56.76;100996.23;1618922;88;21293;-75
2021/03/06 02:16:11;;;;;;;5.22;2.37;;;;;;;-2.62;56.12;101006.20;1618970;86;21223;-78
2021/03/06 02:19:04;;;;;;;4.30;1.77;;;;;;;-2.69;56.25;101005.20;1618318;86;21710;-76
2021/03/06 02:22:26;;;;;;;5.15;2.02;;;;;;;-2.69;56.25;101005.20;1612310;88;21199;-77
2021/03/06 02:25:16;;;;;;;4.33;1.67;;;;;;;-2.72;55.96;101014.66;1588179;88;21181;-76
2021/03/06 02:28:23;;;;;;;4.28;1.95;;;;;;;-2.79;55.78;101013.17;1619118;86;21274;-76
2021/03/06 02:30:52;;;;;;;3.77;1.60;;;;;;;-2.84;55.71;101023.27;1612944;86;21401;-78
2021/03/06 02:33:25;;;;;;;4.60;2.08;;;;;;;-2.88;55.57;101021.95;1617357;86;21218;-76
2021/03/06 02:35:53;;;;;;;3.90;1.60;;;;;;;-2.92;55.36;101028.48;1618942;87;21219;-74
2021/03/06 02:38:20;;;;;;;4.78;1.67;;;;;;;-2.95;55.30;101029.61;1617878;87;21829;-75
2021/03/06 02:40:48;;;;;;;4.75;1.70;;;;;;;-2.98;55.05;101034.33;1619909;86;21638;-75
2021/03/06 02:43:16;;;;;;;4.28;1.62;;;;;;;-3.00;55.10;101042.31;1618416;86;21331;-75
2021/03/06 02:45:45;;;;;;;3.83;1.80;;;;;;;-3.03;55.04;101037.89;1586023;88;21678;-74
2021/03/06 02:48:13;;;;;;;4.95;1.80;;;;;;;-3.10;55.18;101035.89;1592561;88;21821;-75
2021/03/06 02:50:41;;;;;;;4.67;1.72;;;;;;;-3.13;55.34;101041.43;1572987;88;21627;-75
2021/03/06 02:53:08;;;;;;;3.02;1.50;;;;;;;-3.16;55.29;101047.45;1611831;86;21213;-77
2021/03/06 02:55:38;;;;;;;6.35;2.37;;;;;;;-3.18;55.46;101049.42;1618299;87;21313;-77
2021/03/06 02:58:42;;;;;;;4.87;2.20;;;;;;;-3.20;55.51;101052.17;1618942;86;21291;-76
2021/03/06 03:01:26;;;;;;;4.85;2.12;;;;;;;-3.22;55.59;101055.45;1620248;87;21244;-76
2021/03/06 03:04:23;;;;;;;5.33;2.00;;;;;;;-3.21;55.55;101056.27;1752846;79;22624;-73
2021/03/06 03:06:51;;;;;;;5.08;2.25;;;;;;;-3.31;55.48;101066.32;1744283;80;21169;-72
2021/03/06 03:09:28;;;;;;;6.83;2.20;;;;;;;-3.35;55.43;101072.02;1754847;80;21379;-72
2021/03/06 03:12:14;;;;;;;5.47;1.98;;;;;;;-3.39;55.30;101071.51;1762437;79;21308;-73
2021/03/06 03:15:15;;;;;;;5.85;1.92;;;;;;;-3.42;55.13;101072.27;1776666;80;21119;-72
2021/03/06 03:17:51;;;;;;;6.60;1.90;;;;;;;-3.45;54.83;101079.13;1744317;80;21170;-71
2021/03/06 03:20:39;;;;;;;4.83;2.00;;;;;;;-3.49;54.27;101076.47;1749425;79;21195;-73
2021/03/06 03:23:34;;;;;;;4.58;1.70;;;;;;;-3.51;53.92;101079.25;1756537;79;21431;-72
2021/03/06 03:26:07;;;;;;;4.12;1.67;;;;;;;-3.54;53.85;101088.20;1742710;81;21079;-72
2021/03/06 03:28:35;;;;;;;5.67;1.60;;;;;;;-3.58;53.79;101084.26;1795748;79;21112;-71
2021/03/06 03:31:04;;;;;;;3.77;1.75;;;;;;;-3.59;53.81;101090.43;1777528;80;21072;-71
2021/03/06 03:33:33;;;;;;;4.58;1.90;;;;;;;-3.61;53.59;101094.19;1742553;80;21606;-71
2021/03/06 03:36:02;;;;;;;5.05;1.62;;;;;;;-3.65;53.51;101097.59;1780055;79;21479;-73
2021/03/06 03:38:31;;;;;;;4.40;1.90;;;;;;;-3.66;53.45;101100.33;1797706;77;21186;-73
2021/03/06 03:40:59;;;;;;;5.17;1.87;;;;;;;-3.69;53.36;101093.61;1764012;79;21116;-72
2021/03/06 03:43:27;;;;;;;5.78;1.80;;;;;;;-3.70;53.37;101091.98;1802781;79;21162;-70
2021/03/06 03:45:55;;;;;;;4.80;1.87;;;;;;;-3.69;53.33;101100.63;1795938;79;21151;-71
2021/03/06 03:48:23;;;;;;;4.37;1.50;;;;;;;-3.70;53.23;101101.13;1801029;79;21129;-71
2021/03/06 03:50:52;;;;;;;4.87;1.60;;;;;;;-3.69;53.40;101103.24;1793428;79;21167;-71
2021/03/06 03:53:21;;;;;;;4.97;1.95;;;;;;;-3.69;53.36;101098.02;1789273;79;21072;-72
2021/03/06 03:55:50;;;;;;;4.08;1.80;;;;;;;-3.71;53.42;101102.10;1792970;79;21167;-71
2021/03/06 03:58:18;;;;;;;5.55;1.90;;;;;;;-3.71;53.60;101103.89;1799098;77;21503;-72
2021/03/06 04:00:45;;;;;;;4.83;1.87;;;;;;;-3.75;53.69;101094.24;1789506;79;21343;-71
2021/03/06 04:03:16;;;;;;;4.37;1.62;;;;;;;-3.75;53.87;101102.53;1799008;77;21067;-71
2021/03/06 04:05:44;;;;;;;4.72;1.92;;;;;;;-3.76;54.04;101101.72;1800895;79;21159;-72
2021/03/06 04:08:13;;;;;;;4.67;1.70;;;;;;;-3.78;54.27;101097.15;1793509;79;21581;-72
2021/03/06 04:10:41;;;;;;;4.33;2.00;;;;;;;-3.80;54.41;101097.77;1799649;79;21528;-71
2021/03/06 04:13:10;;;;;;;4.33;2.00;;;;;;;-3.82;54.59;101100.55;1767285;79;21805;-73
2021/03/06 04:15:37;;;;;;;6.40;1.72;;;;;;;-3.84;54.75;101102.96;1785467;79;21626;-73
2021/03/06 04:18:05;;;;;;;5.15;2.05;;;;;;;-3.84;54.83;101110.80;1788604;77;21180;-72
2021/03/06 04:20:33;;;;;;;4.83;1.80;;;;;;;-3.86;55.00;101106.20;1803328;79;21159;-73
2021/03/06 04:23:02;;;;;;;5.75;1.95;;;;;;;-3.86;55.21;101110.11;1799403;79;21147;-72
2021/03/06 04:25:30;;;;;;;6.87;2.00;;;;;;;-3.89;55.33;101109.92;1792352;77;22913;-73
2021/03/06 04:27:58;;;;;;;4.33;1.90;;;;;;;-3.90;55.49;101113.99;1786412;79;21142;-72
2021/03/06 04:30:26;;;;;;;5.37;2.02;;;;;;;-3.93;55.65;101116.90;1794065;79;21153;-74
2021/03/06 04:32:53;;;;;;;5.85;1.90;;;;;;;-3.97;55.84;101118.17;1793418;79;21638;-75
2021/03/06 04:35:22;;;;;;;7.40;2.20;;;;;;;-4.00;56.02;101125.80;1801721;77;21143;-71
2021/03/06 04:37:49;;;;;;;10.15;2.30;;;;;;;-4.06;56.20;101124.59;1801302;79;21199;-70
2021/03/06 04:40:17;;;;;;;8.80;2.30;;;;;;;-4.08;56.40;101126.55;1799046;79;21155;-71
2021/03/06 04:42:45;;;;;;;8.10;2.50;;;;;;;-4.10;56.47;101132.39;1793172;79;21493;-71
2021/03/06 04:45:13;;;;;;;6.53;2.27;;;;;;;-4.11;56.63;101126.84;1786516;79;21710;-72
2021/03/06 04:47:43;;;;;;;6.28;2.20;;;;;;;-4.10;56.72;101127.66;1792877;77;21202;-72
2021/03/06 04:50:11;;;;;;;7.60;2.22;;;;;;;-4.10;56.82;101129.78;1797123;79;21408;-72
2021/03/06 04:52:40;;;;;;;6.67;2.40;;;;;;;-4.10;56.81;101135.48;1801216;79;21177;-72
2021/03/06 04:55:10;;;;;;;6.47;2.10;;;;;;;-4.07;56.87;101139.92;1787890;79;21211;-72
2021/03/06 04:57:37;;;;;;;8.35;2.58;;;;;;;-4.05;56.80;101147.13;1780758;79;21219;-73
2021/03/06 05:00:07;;;;;;;7.10;2.25;;;;;;;-4.01;56.95;101145.86;1794854;79;21060;-72
2021/03/06 05:02:36;;;;;;;5.87;2.00;;;;;;;-3.98;56.93;101143.91;1786703;79;21347;-72
2021/03/06 05:05:06;;;;;;;6.15;1.90;;;;;;;-3.96;56.87;101141.98;1782091;79;21230;-70
2021/03/06 05:07:34;;;;;;;4.87;1.90;;;;;;;-3.92;56.93;101149.35;1802784;79;21191;-71
2021/03/06 05:10:04;;;;;;;4.90;1.98;;;;;;;-3.90;56.86;101150.53;1790078;77;21134;-72
2021/03/06 05:12:32;;;;;;;5.20;2.17;;;;;;;-3.87;56.78;101152.84;1765491;80;21150;-72
2021/03/06 05:14:59;;;;;;;6.40;2.80;;;;;;;-3.83;56.79;101159.41;1736090;80;21826;-72
2021/03/06 05:17:27;;;;;;;8.00;2.47;;;;;;;-3.79;56.62;101162.05;1752453;81;21181;-72
2021/03/06 05:19:55;;;;;;;4.90;2.10;;;;;;;-3.74;56.50;101155.91;1744342;79;21239;-73
2021/03/06 05:22:22;;;;;;;6.35;2.27;;;;;;;-3.69;56.29;101161.98;1753003;81;21242;-72
2021/03/06 05:24:50;;;;;;;6.85;2.20;;;;;;;-3.64;56.24;101171.02;1763403;81;21076;-72
2021/03/06 05:27:19;;;;;;;6.10;2.17;;;;;;;-3.59;56.25;101170.06;1731383;81;21322;-73
2021/03/06 05:29:48;;;;;;;9.25;2.20;;;;;;;-3.53;56.32;101172.57;1717169;81;21196;-71
2021/03/06 05:32:16;;;;;;;8.88;2.47;;;;;;;-3.46;56.42;101181.94;1735678;81;21676;-73
2021/03/06 05:34:43;;;;;;;7.00;2.22;;;;;;;-3.42;56.43;101182.81;1740969;81;21068;-71
2021/03/06 05:37:11;;;;;;;4.28;1.52;;;;;;;-3.34;56.61;101197.23;1740061;81;21119;-72
2021/03/06 05:39:39;;;;;;;7.97;2.27;;;;;;;-3.28;56.61;101191.90;1750814;81;21327;-73
2021/03/06 05:42:09;;;;;;;5.70;1.70;;;;;;;-3.21;56.67;101199.46;1753576;81;21602;-71
2021/03/06 05:44:38;;;;;;;5.60;2.02;;;;;;;-3.13;56.61;101197.39;1754571;80;21176;-72
2021/03/06 05:47:06;;;;;;;3.40;1.40;;;;;;;-3.01;56.07;101200.59;1742236;79;21985;-73
2021/03/06 05:49:36;;;;;;;2.80;1.32;;;;;;;-2.94;55.61;101200.31;1750033;81;21996;-72
2021/03/06 05:52:08;;;;;;;4.50;1.55;;;;;;;-2.85;55.06;101215.09;1745892;81;22286;-73
2021/03/06 05:54:37;;;;;;;3.20;1.30;;;;;;;-2.77;54.39;101205.16;1741796;81;22589;-72
2021/03/06 05:57:05;;;;;;;2.95;1.35;;;;;;;-2.69;53.60;101215.20;1739516;81;21128;-72
2021/03/06 05:59:33;;;;;;;4.12;1.60;;;;;;;-2.62;53.50;101225.37;1753485;81;21594;-74
2021/03/06 06:02:01;;;;;;;4.72;1.92;;;;;;;-2.56;53.17;101216.59;1741681;81;21148;-73
2021/03/06 06:04:29;;;;;;;6.45;1.82;;;;;;;-2.48;53.28;101225.28;1740811;81;21279;-72
2021/03/06 06:06:57;;;;;;;4.17;1.75;;;;;;;-2.32;52.20;101222.43;1747063;81;21127;-72
2021/03/06 06:09:25;;;;;;;3.12;1.50;;;;;;;-2.32;52.20;101222.43;1733377;81;21211;-72
2021/03/06 06:11:53;;;;;;;5.45;1.72;;;;;;;-2.28;51.13;101235.52;1749129;81;21156;-74
2021/03/06 06:14:22;;;;;;;3.90;1.70;;;;;;;-2.27;50.24;101230.61;1752878;81;21045;-73
2021/03/06 06:16:50;;;;;;;4.65;1.80;;;;;;;-2.23;49.73;101238.02;1753902;81;22378;-75
2021/03/06 06:19:18;;;;;;;3.58;1.60;;;;;;;-2.19;49.56;101243.75;1757920;81;21247;-73
2021/03/06 06:21:49;;;;;;;4.10;1.90;;;;;;;-2.15;49.11;101247.20;1757043;81;21322;-71
2021/03/06 06:24:22;;;;;;;4.03;1.62;;;;;;;-2.13;48.68;101249.67;1756152;81;21163;-72
2021/03/06 06:27:00;;;;;;;3.52;1.52;;;;;;;-2.09;48.51;101260.16;1748623;81;21077;-73
2021/03/06 06:29:44;;;;;;;4.10;1.65;;;;;;;-2.05;48.24;101258.85;1745680;79;21238;-73
2021/03/06 06:32:19;;;;;;;2.90;1.30;;;;;;;-1.99;48.00;101256.92;1765341;80;21134;-72
2021/03/06 06:35:05;;;;;;;3.58;1.65;;;;;;;-1.91;47.34;101265.29;1740584;81;21504;-71
2021/03/06 06:37:33;;;;;;;4.45;1.80;;;;;;;-1.89;46.42;101240.59;1762160;81;21461;-72
2021/03/06 06:40:20;;;;;;;3.87;1.52;;;;;;;-1.86;46.62;101266.95;1751684;79;21631;-72
2021/03/06 06:42:48;;;;;;;3.25;1.72;;;;;;;-1.78;46.82;101266.16;1745284;79;21396;-72
2021/03/06 06:45:16;;;;;;;4.85;1.42;;;;;;;-1.70;46.92;101266.20;1738923;81;21674;-73
2021/03/06 06:47:47;;;;;;;3.52;1.55;;;;;;;-1.60;46.24;101278.67;1760143;81;21141;-73
2021/03/06 06:50:27;;;;;;;6.25;2.15;;;;;;;-1.53;45.64;101281.47;1747359;81;21646;-75
2021/03/06 06:52:55;;;;;;;3.33;1.65;;;;;;;-1.48;45.41;101276.09;1762341;81;21201;-74
2021/03/06 06:55:39;;;;;;;5.08;1.70;;;;;;;-1.41;45.17;101269.72;1745353;81;21212;-74
2021/03/06 06:58:07;;;;;;;3.25;1.55;;;;;;;-1.34;45.40;101273.83;1761714;79;21659;-72
2021/03/06 07:00:36;;;;;;;4.67;1.67;;;;;;;-1.26;44.80;101281.19;1725607;81;21243;-72
2021/03/06 07:03:05;;;;;;;6.72;2.10;;;;;;;-1.22;45.25;101272.05;1763407;81;21112;-74
2021/03/06 07:05:36;;;;;;;6.35;1.85;;;;;;;-1.10;45.25;101277.77;1741274;81;21196;-75
2021/03/06 07:08:22;;;;;;;6.53;1.85;;;;;;;-0.99;44.49;101280.56;1759299;81;23350;-74
2021/03/06 07:10:58;;;;;;;6.47;1.87;;;;;;;-0.88;44.05;101275.01;1744538;79;23724;-73
2021/03/06 07:13:26;;;;;;;5.42;1.90;;;;;;;-0.90;43.58;101286.14;1714302;83;21097;-73
2021/03/06 07:15:54;;;;;;;3.75;1.55;;;;;;;-0.86;43.29;101274.34;1669215;83;21585;-73
2021/03/06 07:18:22;;;;;;;3.65;1.62;;;;;;;-0.81;43.34;101273.86;1753430;80;21588;-72
2021/03/06 07:20:51;;;;;;;3.80;1.40;;;;;;;-0.79;42.53;101267.94;1715662;82;21149;-73
2021/03/06 07:23:24;;;;;;;6.70;2.22;;;;;;;-0.76;42.41;101278.95;1738472;81;21159;-73
2021/03/06 07:25:55;;;;;;;6.83;1.85;;;;;;;-0.69;41.98;101276.95;1721656;81;21594;-73
2021/03/06 07:28:24;;;;;;;5.33;1.60;;;;;;;-0.65;41.66;101278.28;1726775;81;21382;-73
2021/03/06 07:30:54;;;;;;;8.83;1.95;;;;;;;-0.62;41.97;101280.58;1731269;81;21168;-74
2021/03/06 07:33:22;;;;;;;7.25;2.00;;;;;;;-0.56;41.58;101279.42;1732414;81;21433;-73
2021/03/06 07:35:52;;;;;;;5.97;1.80;;;;;;;-0.51;41.49;101274.98;1739574;81;21187;-73
2021/03/06 07:38:21;;;;;;;4.55;1.90;;;;;;;-0.46;41.37;101279.25;1728376;81;21151;-73
2021/03/06 07:40:56;;;;;;;4.97;2.00;;;;;;;-0.37;41.19;101288.72;1735799;81;21425;-73
2021/03/06 07:43:33;;;;;;;5.20;2.08;;;;;;;-0.28;40.26;101293.47;1735239;82;21205;-73
2021/03/06 07:46:01;;;;;;;7.10;2.10;;;;;;;-0.25;40.35;101291.33;1737143;81;21164;-74
2021/03/06 07:48:41;;;;;;;4.42;1.75;;;;;;;-0.20;40.07;101292.13;1738435;81;21143;-75
2021/03/06 07:51:09;;;;;;;4.28;1.75;;;;;;;-0.15;40.20;101291.14;1736068;81;21212;-74
2021/03/06 07:53:37;;;;;;;4.65;1.98;;;;;;;-0.08;40.58;101291.28;1737381;81;21383;-75
2021/03/06 07:56:08;;;;;;;5.05;2.00;;;;;;;0.01;40.17;101288.96;1736858;81;21151;-75
2021/03/06 07:58:52;;;;;;;6.62;2.58;;;;;;;0.09;40.62;101293.36;1780074;80;21168;-75
2021/03/06 08:01:27;;;;;;;3.62;1.70;;;;;;;0.16;39.27;101285.93;1759911;79;21206;-74
2021/03/06 08:03:56;;;;;;;4.60;2.12;;;;;;;0.20;39.09;101293.82;1770098;80;21106;-74
2021/03/06 08:06:32;;;;;;;6.00;2.47;;;;;;;0.29;39.06;101296.39;1780492;80;21379;-74
2021/03/06 08:09:12;;;;;;;4.40;2.17;;;;;;;0.36;38.74;101296.03;1781871;78;22714;-73
2021/03/06 08:11:43;;;;;;;5.30;2.40;;;;;;;0.30;39.11;101302.81;1779289;78;21563;-72
2021/03/06 08:17:31;;;;;;;4.73;1.90;;;;;;;0.42;38.01;101295.34;1799103;77;23304;-74
2021/03/06 08:20:01;;;;;;;5.10;1.80;;;;;;;0.41;37.82;101297.16;1821129;77;21607;-75
2021/03/06 08:22:31;;;;;;;4.10;1.90;;;;;;;0.49;37.35;101292.34;1824995;76;21360;-76
2021/03/06 08:25:18;;;;;;;4.12;1.60;;;;;;;0.55;37.81;101300.86;1801601;77;21179;-75
2021/03/06 08:27:50;;;;;;;4.83;2.15;;;;;;;0.64;36.59;101299.02;1828281;77;21186;-75
2021/03/06 08:30:27;;;;;;;3.80;1.70;;;;;;;0.68;36.84;101300.30;1841275;76;21072;-74
2021/03/06 08:33:14;;;;;;;3.87;1.30;;;;;;;0.70;36.07;101309.66;1822691;77;21614;-75
2021/03/06 08:35:42;;;;;;;4.42;1.60;;;;;;;0.70;36.33;101296.52;1819647;77;21413;-74
2021/03/06 08:38:30;;;;;;;4.47;1.65;;;;;;;0.73;36.62;101301.92;1816561;77;21590;-74
2021/03/06 08:40:58;;;;;;;3.80;1.50;;;;;;;0.82;36.20;101298.23;1826899;76;21160;-75
2021/03/06 08:43:26;;;;;;;3.30;1.40;;;;;;;0.89;35.39;101301.83;1829125;77;21191;-75
2021/03/06 08:45:54;;;;;;;3.67;1.32;;;;;;;0.92;35.17;101304.58;1815845;77;21064;-73
2021/03/06 08:48:23;;;;;;;2.98;1.57;;;;;;;0.93;35.02;101297.84;1815992;77;21359;-76
2021/03/06 08:50:50;;;;;;;4.70;1.77;;;;;;;0.93;35.45;101300.97;1824341;77;21049;-72
2021/03/06 08:53:20;;;;;;;2.80;1.30;;;;;;;1.00;35.43;101299.27;1818935;77;21043;-76
2021/03/06 08:55:49;;;;;;;3.70;1.30;;;;;;;1.10;35.22;101295.91;1822057;77;21188;-76
2021/03/06 08:58:18;;;;;;;3.15;1.25;;;;;;;1.16;34.40;101306.23;1836121;77;21662;-74
2021/03/06 09:00:52;;;;;;;3.35;1.40;;;;;;;1.19;34.41;101294.55;1818845;77;21281;-74
2021/03/06 09:03:24;;;;;;;2.72;1.12;;;;;;;1.29;34.33;101300.38;1829635;75;21198;-75
2021/03/06 09:05:55;;;;;;;4.22;1.72;;;;;;;1.36;33.06;101284.19;1835578;75;21171;-75
2021/03/06 09:08:26;;;;;;;4.47;1.50;;;;;;;1.39;33.67;101287.28;1847853;75;21164;-75
2021/03/06 09:10:59;;;;;;;3.47;1.40;;;;;;;1.43;33.27;101283.79;1860795;75;21147;-74
2021/03/06 09:13:31;;;;;;;4.28;1.80;;;;;;;1.50;33.66;101276.00;1861945;75;21363;-75
2021/03/06 09:16:03;;;;;;;2.67;1.30;;;;;;;1.55;33.30;101282.87;1861391;75;21240;-74
2021/03/06 09:18:37;;;;;;;4.55;1.70;;;;;;;1.56;33.06;101284.49;1854874;75;21183;-73
2021/03/06 09:21:15;;;;;;;6.75;1.70;;;;;;;1.61;33.95;101286.92;1860651;75;21188;-74
2021/03/06 09:23:43;;;;;;;4.70;1.60;;;;;;;1.74;33.36;101297.30;1857309;75;21919;-73
2021/03/06 09:26:19;;;;;;;3.62;1.60;;;;;;;1.81;33.15;101297.74;1856770;75;22240;-74
2021/03/06 09:28:50;;;;;;;3.65;1.30;;;;;;;1.87;32.03;101300.12;1867713;75;21175;-73
2021/03/06 09:31:30;;;;;;;5.62;1.70;;;;;;;1.89;31.94;101283.66;1855135;75;21183;-73
2021/03/06 09:34:02;;;;;;;6.92;1.40;;;;;;;1.90;32.42;101292.37;1796525;78;21651;-72
2021/03/06 09:36:31;;;;;;;3.75;1.30;;;;;;;1.89;31.98;101290.23;1798321;78;21814;-72
2021/03/06 09:39:01;;;;;;;2.25;1.25;;;;;;;1.83;32.04;101293.09;1807974;78;21528;-72
2021/03/06 09:41:33;;;;;;;3.25;1.50;;;;;;;1.88;31.49;101288.61;1789671;78;21133;-74
2021/03/06 09:44:03;;;;;;;4.10;1.50;;;;;;;1.92;31.75;101293.02;1856961;75;21150;-74
2021/03/06 09:46:33;;;;;;;4.67;1.42;;;;;;;2.00;31.71;101302.95;1804500;78;21102;-73
2021/03/06 09:49:14;;;;;;;3.67;1.65;;;;;;;2.06;31.84;101293.50;1797353;78;21603;-73
2021/03/06 09:51:47;;;;;;;4.40;1.55;;;;;;;2.14;32.01;101285.98;1804019;78;21381;-74
2021/03/06 09:54:16;;;;;;;3.27;1.50;;;;;;;2.27;32.09;101286.16;1799352;78;21665;-72
2021/03/06 09:56:54;;;;;;;4.17;1.57;;;;;;;2.35;32.09;101280.80;1804568;78;21148;-72
2021/03/06 09:59:23;;;;;;;2.87;1.32;;;;;;;2.40;31.70;101279.72;1801901;78;21176;-73
2021/03/06 10:01:51;;;;;;;4.45;1.57;;;;;;;2.41;31.52;101286.66;1798136;78;21211;-73
2021/03/06 10:04:22;;;;;;;6.42;1.72;;;;;;;2.37;31.70;101274.84;1796148;78;21636;-73
2021/03/06 10:06:52;;;;;;;4.42;2.00;;;;;;;2.36;31.73;101278.47;1797382;78;21199;-73
2021/03/06 10:09:21;;;;;;;3.80;1.80;;;;;;;2.43;32.12;101276.72;1801613;78;21832;-73
2021/03/06 10:11:55;;;;;;;4.47;1.60;;;;;;;2.52;32.41;101269.02;1798237;78;22811;-73
2021/03/06 10:14:27;;;;;;;2.98;1.40;;;;;;;2.57;31.51;101269.29;1801206;78;21211;-73
2021/03/06 10:16:58;;;;;;;2.85;1.40;;;;;;;2.56;32.05;101270.78;1796541;78;22092;-73
2021/03/06 10:19:29;;;;;;;3.45;1.60;;;;;;;2.57;31.00;101260.06;1796647;78;21240;-72
2021/03/06 10:22:05;;;;;;;3.87;1.80;;;;;;;2.62;31.12;101248.13;1788980;78;21195;-74
2021/03/06 10:24:53;;;;;;;5.90;1.90;;;;;;;2.64;31.71;101263.27;1856826;75;21156;-72
2021/03/06 10:27:41;;;;;;;3.65;1.45;;;;;;;2.64;32.04;101260.13;1835597;75;21152;-72
2021/03/06 10:30:18;;;;;;;5.25;2.08;;;;;;;2.67;31.42;101247.89;1855100;75;21363;-72
2021/03/06 10:32:57;;;;;;;4.47;1.67;;;;;;;2.74;32.09;101251.40;1856713;75;21188;-72
2021/03/06 10:35:42;;;;;;;4.30;1.67;;;;;;;2.86;31.16;101249.06;1861912;75;21184;-72
2021/03/06 10:38:25;;;;;;;3.92;1.47;;;;;;;2.94;30.77;101243.67;1855668;75;21631;-72
2021/03/06 10:41:01;;;;;;;4.00;1.52;;;;;;;2.97;30.98;101239.84;1797169;78;21291;-73
2021/03/06 10:43:39;;;;;;;3.05;1.57;;;;;;;3.04;31.25;101248.12;1798813;78;21372;-73
2021/03/06 10:46:23;;;;;;;2.58;1.27;;;;;;;3.09;30.88;101250.68;1797280;78;21224;-73
2021/03/06 10:49:00;;;;;;;3.92;1.50;;;;;;;3.17;30.31;101238.69;1806683;78;21172;-73
2021/03/06 10:51:54;;;;;;;3.37;1.42;;;;;;;3.18;29.57;101233.70;1803299;78;21635;-73
2021/03/06 10:54:24;;;;;;;3.12;1.50;;;;;;;3.11;29.58;101246.05;1794069;79;21561;-73
2021/03/06 10:57:05;;;;;;;5.22;2.45;;;;;;;2.99;29.77;101242.58;1792123;79;23528;-72
2021/03/06 10:59:37;;;;;;;3.20;1.32;;;;;;;2.84;30.23;101233.13;1790305;78;21196;-73
2021/03/06 11:02:05;;;;;;;3.58;1.37;;;;;;;2.71;30.37;101231.18;1861043;75;21640;-74
2021/03/06 11:04:37;;;;;;;3.17;1.50;;;;;;;2.68;30.94;101230.23;1858338;75;21584;-73
2021/03/06 11:07:07;;;;;;;;;;;;;;;2.71;30.40;101231.99;1800975;78;21183;-72
2021/03/06 11:09:38;;;;;;;5.37;2.30;;;;;;;2.74;30.55;101238.21;1796795;79;20709;-73
2021/03/06 11:12:30;;;;;;;4.75;1.92;;;;;;;2.77;30.35;101234.39;1806955;78;21177;-72
2021/03/06 11:15:10;;;;;;;5.25;1.82;;;;;;;2.77;31.07;101225.16;1797628;79;21635;-73
2021/03/06 11:17:39;;;;;;;2.92;1.50;;;;;;;2.86;30.99;101225.82;1796921;78;21212;-72
2021/03/06 11:20:09;;;;;;;3.58;1.50;;;;;;;2.88;31.27;101240.47;1796501;78;21683;-73
2021/03/06 11:22:36;;;;;;;4.15;1.30;;;;;;;2.80;31.30;101228.73;1797147;78;21372;-73
2021/03/06 11:25:08;;;;;;;4.00;1.52;;;;;;;2.71;32.00;101223.27;1805764;79;21675;-73
2021/03/06 11:27:53;;;;;;;4.15;1.70;;;;;;;2.68;31.93;101230.23;1788889;80;21616;-73
2021/03/06 11:30:43;;;;;;;4.65;1.77;;;;;;;2.70;31.84;101222.93;1859546;75;21756;-72
2021/03/06 11:33:16;;;;;;;3.50;1.80;;;;;;;2.82;32.17;101226.20;1860028;75;21573;-72
2021/03/06 11:35:46;;;;;;;5.72;1.50;;;;;;;2.85;31.39;101228.97;1857563;75;22138;-72
2021/03/06 11:38:16;;;;;;;3.17;1.32;;;;;;;2.90;31.20;101212.08;1859095;75;21170;-73
2021/03/06 11:40:48;;;;;;;3.95;1.40;;;;;;;2.95;30.50;101210.17;1816239;78;21532;-73
2021/03/06 11:43:17;;;;;;;5.72;1.85;;;;;;;2.94;30.92;101214.64;1796818;78;21176;-71
2021/03/06 11:45:46;;;;;;;4.20;1.75;;;;;;;2.95;31.26;101211.50;1805116;79;21483;-73
2021/03/06 11:48:17;;;;;;;3.37;1.50;;;;;;;2.98;31.09;101200.05;1793501;78;21159;-71
2021/03/06 11:50:48;;;;;;;3.15;1.60;;;;;;;3.02;31.96;101206.58;1864504;75;21172;-73
2021/03/06 11:53:18;;;;;;;3.22;1.52;;;;;;;2.99;32.13;101197.72;1801603;78;21169;-73
2021/03/06 11:55:47;;;;;;;3.70;1.47;;;;;;;2.89;32.54;101203.83;1794744;78;21135;-74